Time;durP1;ratioP1;P1;durP2;ratioP2;P2;SDS_P1;SDS_P2;PMS_P1;PMS_P2;Temp;Humidity;BMP_temperature;BMP_pressure;BME280_temperature;BME280_humidity;BME280_pressure;Samples;Min_cycle;Max_cycle;Signal;HPM_P1;HPM_P2
2021/05/27 00:00:16;;;;;;;16.30;11.70;;;;;;;15.61;75.81;99714.48;1780145;79;21648;-74
2021/05/27 00:02:42;;;;;;;19.42;11.60;;;;;;;15.52;76.21;99712.16;1784115;79;21038;-73
2021/05/27 00:05:10;;;;;;;17.07;10.78;;;;;;;15.54;76.40;99710.72;1781309;79;21062;-73
2021/05/27 00:07:37;;;;;;;15.98;11.25;;;;;;;15.65;76.23;99705.23;1780217;79;21047;-75
2021/05/27 00:10:06;;;;;;;18.98;11.40;;;;;;;15.66;76.33;99707.41;1782713;79;21031;-75
2021/05/27 00:12:33;;;;;;;18.80;11.90;;;;;;;15.60;76.68;99707.48;1784670;79;21030;-75
2021/05/27 00:15:00;;;;;;;16.75;11.43;;;;;;;15.56;76.95;99706.92;1747211;81;21078;-75
2021/05/27 00:17:27;;;;;;;20.57;11.48;;;;;;;15.60;77.02;99704.83;1766674;79;21062;-75
2021/05/27 00:19:54;;;;;;;16.67;11.18;;;;;;;15.67;76.78;99695.77;1764375;79;21554;-75
2021/05/27 00:22:20;;;;;;;15.23;11.18;;;;;;;15.70;76.88;99698.13;1781979;79;20999;-75
2021/05/27 00:24:48;;;;;;;15.08;10.45;;;;;;;15.70;77.14;99695.47;1784498;79;21094;-75
2021/05/27 00:27:15;;;;;;;14.68;10.82;;;;;;;15.71;77.23;99694.48;1780803;79;21027;-75
2021/05/27 00:29:41;;;;;;;13.93;10.03;;;;;;;15.73;77.17;99696.53;1783302;79;21050;-75
2021/05/27 00:32:08;;;;;;;12.68;10.03;;;;;;;15.86;76.87;99694.41;1785169;79;21011;-75
2021/05/27 00:34:35;;;;;;;16.10;10.68;;;;;;;15.89;76.75;99686.14;1778780;79;21036;-75
2021/05/27 00:37:03;;;;;;;12.35;9.73;;;;;;;15.85;76.85;99686.56;1785308;79;21034;-75
2021/05/27 00:39:29;;;;;;;14.10;9.83;;;;;;;15.81;76.96;99682.48;1783272;79;21022;-75
2021/05/27 00:41:57;;;;;;;11.30;9.68;;;;;;;15.83;76.76;99692.05;1783170;79;21109;-75
2021/05/27 00:44:27;;;;;;;13.55;10.53;;;;;;;15.88;76.67;99686.27;1781687;79;21023;-73
2021/05/27 00:46:55;;;;;;;12.90;9.83;;;;;;;15.87;76.74;99688.11;1783456;79;21050;-73
2021/05/27 00:49:22;;;;;;;13.90;10.20;;;;;;;15.84;76.86;99690.21;1785999;79;21067;-73
2021/05/27 00:51:49;;;;;;;10.20;9.10;;;;;;;15.86;76.74;99687.75;1784830;80;21665;-75
2021/05/27 00:54:16;;;;;;;12.78;10.25;;;;;;;16.00;76.33;99682.96;1794668;79;21037;-75
2021/05/27 00:56:42;;;;;;;13.45;10.20;;;;;;;15.98;76.23;99686.25;1789329;79;21099;-75
2021/05/27 00:59:09;;;;;;;12.05;9.75;;;;;;;15.90;76.29;99682.98;1789233;79;21015;-75
2021/05/27 01:01:36;;;;;;;12.85;9.95;;;;;;;15.80;76.37;99680.29;1794711;79;21328;-75
2021/05/27 01:04:03;;;;;;;12.35;9.73;;;;;;;15.79;76.45;99687.94;1791492;79;21066;-75
2021/05/27 01:06:30;;;;;;;12.73;10.50;;;;;;;15.88;76.18;99683.59;1793357;79;21038;-75
2021/05/27 01:08:56;;;;;;;11.55;9.63;;;;;;;15.88;76.23;99687.13;1796431;79;21003;-75
2021/05/27 01:11:25;;;;;;;13.22;10.60;;;;;;;15.83;76.33;99686.72;1796281;79;21084;-75
2021/05/27 01:13:52;;;;;;;11.55;9.30;;;;;;;15.53;76.39;99650.39;1788490;79;21078;-75
2021/05/27 01:16:20;;;;;;;11.90;9.88;;;;;;;15.71;76.38;99689.98;1789393;79;21066;-75
2021/05/27 01:18:51;;;;;;;12.45;9.43;;;;;;;15.73;76.29;99688.53;1793862;79;21632;-75
2021/05/27 01:21:18;;;;;;;11.53;9.63;;;;;;;15.68;76.56;99688.12;1790205;79;21053;-75
2021/05/27 01:23:45;;;;;;;11.38;9.83;;;;;;;15.58;76.84;99684.62;1788200;79;21521;-74
2021/05/27 01:26:12;;;;;;;12.60;9.60;;;;;;;15.49;77.11;99683.65;1788433;79;21592;-73
2021/05/27 01:28:42;;;;;;;12.13;8.95;;;;;;;15.47;77.21;99677.60;1789042;79;21014;-75
2021/05/27 01:31:10;;;;;;;10.72;9.60;;;;;;;15.54;76.97;99681.40;1789464;79;21015;-75
2021/05/27 01:33:37;;;;;;;11.05;9.85;;;;;;;15.51;77.14;99678.52;1790226;79;21046;-75
2021/05/27 01:36:06;;;;;;;10.60;9.55;;;;;;;15.44;77.33;99683.23;1791752;79;21079;-75
2021/05/27 01:38:32;;;;;;;13.93;11.05;;;;;;;15.37;77.59;99684.26;1787724;79;21022;-75
2021/05/27 01:41:01;;;;;;;14.65;10.72;;;;;;;15.39;77.68;99687.13;1791307;79;21100;-75
2021/05/27 01:43:31;;;;;;;12.58;10.53;;;;;;;15.56;77.47;99687.41;1794368;79;21054;-75
2021/05/27 01:45:58;;;;;;;15.63;11.20;;;;;;;15.61;77.32;99683.83;1798071;79;21079;-74
2021/05/27 01:48:25;;;;;;;14.93;10.68;;;;;;;15.61;77.48;99686.99;1797520;79;21108;-73
2021/05/27 01:50:51;;;;;;;12.35;10.45;;;;;;;15.65;77.48;99684.38;1792150;79;21116;-75
2021/05/27 01:53:20;;;;;;;17.45;11.30;;;;;;;15.79;77.12;99685.27;1787866;79;21059;-74
2021/05/27 01:55:48;;;;;;;14.40;11.83;;;;;;;15.88;76.86;99683.13;1791868;79;21082;-74
2021/05/27 01:58:15;;;;;;;15.70;11.22;;;;;;;15.84;76.82;99679.07;1790776;79;21569;-73
2021/05/27 02:00:44;;;;;;;14.07;11.10;;;;;;;15.78;76.86;99678.28;1794296;79;21081;-73
2021/05/27 02:03:11;;;;;;;13.00;11.38;;;;;;;15.73;76.97;99680.53;1788692;79;21023;-75
2021/05/27 02:05:39;;;;;;;11.70;10.28;;;;;;;15.81;76.78;99680.67;1786758;79;21011;-75
2021/05/27 02:08:09;;;;;;;12.23;10.93;;;;;;;15.82;76.71;99679.70;1787767;79;21039;-75
2021/05/27 02:10:42;;;;;;;17.45;12.30;;;;;;;15.68;76.89;99678.28;1789550;79;21094;-74
2021/05/27 02:13:09;;;;;;;15.18;12.35;;;;;;;15.55;77.21;99671.09;1788548;79;21514;-75
2021/05/27 02:15:37;;;;;;;14.80;11.83;;;;;;;15.58;77.33;99678.79;1793038;79;21071;-73
2021/05/27 02:18:03;;;;;;;13.32;11.70;;;;;;;15.68;77.05;99677.45;1791481;79;21577;-73
2021/05/27 02:20:30;;;;;;;15.63;12.30;;;;;;;15.71;77.09;99670.49;1789514;79;21082;-73
2021/05/27 02:22:57;;;;;;;16.05;12.73;;;;;;;15.69;77.25;99668.45;1785522;80;20971;-73
2021/05/27 02:25:42;;;;;;;19.35;12.75;;;;;;;15.69;77.39;99679.11;1804714;79;21058;-75
2021/05/27 02:28:13;;;;;;;13.75;11.50;;;;;;;15.76;77.27;99677.56;1787489;79;21142;-75
2021/05/27 02:30:41;;;;;;;15.10;11.78;;;;;;;15.88;76.95;99671.13;1785760;80;21629;-75
2021/05/27 02:33:10;;;;;;;15.65;13.25;;;;;;;15.87;76.98;99669.44;1699719;83;21095;-73
2021/05/27 02:35:37;;;;;;;14.47;11.90;;;;;;;15.55;77.21;99625.28;1785677;80;21170;-73
2021/05/27 02:38:05;;;;;;;14.85;12.20;;;;;;;15.84;77.25;99661.73;1785793;80;21534;-73
2021/05/27 02:40:33;;;;;;;15.83;12.10;;;;;;;16.00;76.90;99658.95;1786004;80;21070;-73
2021/05/27 02:43:02;;;;;;;14.93;11.97;;;;;;;16.07;76.73;99662.70;1786325;79;21526;-74
2021/05/27 02:45:30;;;;;;;17.55;13.25;;;;;;;16.08;76.86;99661.72;1786438;79;21052;-74
2021/05/27 02:47:56;;;;;;;15.10;11.95;;;;;;;16.11;76.88;99656.59;1781386;79;21066;-73
2021/05/27 02:50:24;;;;;;;34.15;18.30;;;;;;;16.25;76.57;99656.61;1769762;79;21110;-73
2021/05/27 02:52:51;;;;;;;41.58;22.13;;;;;;;16.32;76.40;99655.88;1772521;80;21014;-74
2021/05/27 02:55:19;;;;;;;43.15;22.45;;;;;;;16.31;76.47;99654.69;1752074;82;21042;-73
2021/05/27 02:57:48;;;;;;;38.60;20.62;;;;;;;16.31;76.55;99653.36;1766028;80;21550;-73
2021/05/27 03:00:18;;;;;;;35.15;18.42;;;;;;;16.36;76.40;99655.91;1753286;80;21577;-75
2021/05/27 03:02:46;;;;;;;30.48;17.92;;;;;;;16.54;76.06;99647.95;1752842;80;21042;-73
2021/05/27 03:05:15;;;;;;;29.05;18.30;;;;;;;16.61;75.95;99648.22;1752243;82;21046;-74
2021/05/27 03:07:42;;;;;;;23.80;15.00;;;;;;;16.62;75.95;99645.04;1752278;82;21109;-73
2021/05/27 03:10:11;;;;;;;21.75;14.07;;;;;;;16.66;75.82;99647.27;1752535;82;21030;-74
2021/05/27 03:12:39;;;;;;;19.90;13.75;;;;;;;16.77;75.36;99644.88;1762081;80;21111;-74
2021/05/27 03:15:08;;;;;;;24.37;15.10;;;;;;;16.88;74.96;99650.51;1783261;80;21082;-75
2021/05/27 03:17:35;;;;;;;23.40;15.23;;;;;;;16.88;75.03;99646.50;1782924;80;21534;-75
2021/05/27 03:20:05;;;;;;;28.45;16.67;;;;;;;16.92;75.03;99643.04;1783344;80;21082;-74
2021/05/27 03:22:34;;;;;;;24.87;14.70;;;;;;;16.96;74.81;99647.11;1765681;80;21316;-75
2021/05/27 03:25:00;;;;;;;21.73;14.50;;;;;;;17.14;74.39;99647.94;1780478;80;21628;-75
2021/05/27 03:27:26;;;;;;;24.10;14.95;;;;;;;17.30;74.00;99645.06;1772406;80;21163;-73
2021/05/27 03:29:53;;;;;;;21.57;14.83;;;;;;;17.29;73.87;99644.72;1765171;80;21078;-75
2021/05/27 03:32:21;;;;;;;26.20;15.98;;;;;;;17.29;73.84;99642.90;1772167;80;21090;-75
2021/05/27 03:34:48;;;;;;;25.02;14.50;;;;;;;17.36;73.92;99644.45;1778329;80;21657;-75
2021/05/27 03:37:16;;;;;;;22.98;14.98;;;;;;;17.71;73.41;99649.89;1777147;80;21569;-76
2021/05/27 03:42:33;;;;;;;23.18;14.80;;;;;;;18.18;71.92;99661.09;1782177;80;21043;-75
2021/05/27 03:44:59;;;;;;;26.82;16.20;;;;;;;18.51;71.56;99649.16;1783165;80;21086;-75
2021/05/27 03:47:28;;;;;;;27.15;16.45;;;;;;;18.79;70.52;99642.22;1779628;80;21613;-75
2021/05/27 03:49:56;;;;;;;23.42;16.42;;;;;;;18.93;69.81;99642.63;1798428;79;21141;-75
2021/05/27 03:52:26;;;;;;;18.82;13.50;;;;;;;19.02;69.17;99638.95;1779271;79;21022;-75
2021/05/27 03:54:54;;;;;;;22.90;16.17;;;;;;;19.04;69.41;99635.61;1793775;80;21075;-76
2021/05/27 03:57:21;;;;;;;20.95;14.93;;;;;;;19.23;69.15;99637.10;1793624;80;21530;-73
2021/05/27 04:02:40;;;;;;;21.48;14.78;;;;;;;20.45;67.45;99628.17;1741596;81;21035;-73
2021/05/27 04:07:50;;;;;;;21.12;14.98;;;;;;;21.84;63.36;99625.99;1778061;79;21616;-74
2021/05/27 04:10:16;;;;;;;23.18;15.10;;;;;;;22.17;61.79;99633.19;1771994;80;21063;-75
2021/05/27 04:12:46;;;;;;;20.30;14.45;;;;;;;22.19;61.52;99635.72;1777575;81;21054;-75
2021/05/27 04:15:27;;;;;;;17.80;13.25;;;;;;;22.15;61.46;99627.17;1780230;79;21012;-74
2021/05/27 04:18:09;;;;;;;23.45;15.03;;;;;;;22.05;61.29;99623.92;1791461;79;21547;-74
2021/05/27 04:20:51;;;;;;;19.37;13.75;;;;;;;21.91;61.70;99629.63;1778187;79;21256;-74
2021/05/27 04:23:39;;;;;;;16.30;12.20;;;;;;;21.90;61.83;99623.91;1815297;79;21059;-74
2021/05/27 04:26:10;;;;;;;18.70;12.88;;;;;;;22.07;61.79;99625.90;1802148;79;21086;-76
2021/05/27 04:28:39;;;;;;;14.93;12.05;;;;;;;22.23;60.94;99628.41;1795141;79;21066;-74
2021/05/27 04:31:11;;;;;;;14.55;11.97;;;;;;;22.40;60.29;99626.89;1777811;81;21041;-74
2021/05/27 04:33:47;;;;;;;22.55;11.70;;;;;;;22.72;59.47;99627.47;1777067;79;21195;-74
2021/05/27 04:36:16;;;;;;;15.48;11.70;;;;;;;22.94;58.87;99626.97;1778927;79;21050;-75
2021/05/27 04:38:44;;;;;;;14.28;10.78;;;;;;;23.12;57.98;99621.64;1796411;79;21085;-75
2021/05/27 04:41:13;;;;;;;18.40;11.95;;;;;;;23.18;57.42;99620.91;1793598;79;21605;-76
2021/05/27 04:43:39;;;;;;;13.43;10.53;;;;;;;23.36;57.44;99621.79;1774186;81;21634;-76
2021/05/27 04:46:10;;;;;;;16.42;11.22;;;;;;;23.40;57.07;99618.52;1778571;79;21058;-75
2021/05/27 04:48:37;;;;;;;17.90;14.40;;;;;;;23.31;56.87;99621.05;1785689;79;21587;-75
2021/05/27 04:51:04;;;;;;;10.98;9.38;;;;;;;23.10;57.37;99622.38;1795698;79;21085;-76
2021/05/27 04:53:31;;;;;;;12.33;10.25;;;;;;;23.03;57.99;99616.39;1799962;79;21050;-75
2021/05/27 04:55:58;;;;;;;19.15;9.80;;;;;;;23.11;57.71;99615.92;1812404;79;21040;-75
2021/05/27 04:58:24;;;;;;;10.60;8.10;;;;;;;23.01;57.50;99613.57;1788210;79;21030;-75
2021/05/27 05:00:50;;;;;;;14.78;9.68;;;;;;;22.87;57.51;99617.99;1792237;79;21064;-77
2021/05/27 05:03:17;;;;;;;9.80;7.97;;;;;;;23.01;57.82;99618.44;1785914;80;21020;-76
2021/05/27 05:05:44;;;;;;;12.07;9.18;;;;;;;23.47;56.73;99621.79;1793056;79;21530;-74
2021/05/27 05:08:13;;;;;;;10.78;8.08;;;;;;;23.86;55.74;99623.09;1788166;79;21096;-76
2021/05/27 05:10:42;;;;;;;15.00;11.65;;;;;;;24.23;54.77;99620.22;1809236;79;20991;-76
2021/05/27 05:13:08;;;;;;;14.65;8.23;;;;;;;24.51;53.46;99617.42;1789081;79;21070;-74
2021/05/27 05:15:38;;;;;;;11.12;8.90;;;;;;;24.73;53.10;99616.78;1792617;79;21070;-74
2021/05/27 05:18:07;;;;;;;7.67;6.85;;;;;;;24.93;52.84;99619.53;1785712;80;21023;-74
2021/05/27 05:20:37;;;;;;;10.20;8.88;;;;;;;24.94;52.02;99613.63;1785744;80;21048;-74
2021/05/27 05:23:06;;;;;;;8.45;6.08;;;;;;;24.53;52.74;99615.36;1785929;80;21083;-73
2021/05/27 05:25:35;;;;;;;8.18;6.03;;;;;;;24.42;52.44;99609.18;1785883;80;21103;-74
2021/05/27 05:28:03;;;;;;;9.40;6.35;;;;;;;24.29;52.19;99612.13;1785882;80;20986;-74
2021/05/27 05:30:29;;;;;;;8.35;6.72;;;;;;;23.90;52.77;99617.59;1785951;80;20999;-73
2021/05/27 05:32:56;;;;;;;15.25;6.70;;;;;;;23.43;53.41;99611.05;1785929;80;21589;-74
2021/05/27 05:35:22;;;;;;;45.17;7.95;;;;;;;23.32;54.28;99613.24;1787508;79;21572;-74
2021/05/27 05:37:49;;;;;;;7.40;5.70;;;;;;;23.76;53.87;99609.95;1786125;80;21089;-75
2021/05/27 05:40:17;;;;;;;11.45;6.60;;;;;;;24.25;53.29;99604.13;1786089;80;21026;-74
2021/05/27 05:42:44;;;;;;;30.60;7.50;;;;;;;24.58;52.32;99599.86;1804800;79;21653;-74
2021/05/27 05:45:15;;;;;;;8.95;7.50;;;;;;;24.65;51.54;99604.28;1818052;79;21542;-75
2021/05/27 05:47:44;;;;;;;9.13;7.10;;;;;;;24.68;51.67;99604.39;1804747;79;21101;-74
2021/05/27 05:50:12;;;;;;;14.35;7.50;;;;;;;24.86;51.76;99609.25;1788161;79;21158;-75
2021/05/27 05:52:40;;;;;;;12.00;7.28;;;;;;;24.94;51.74;99600.92;1791567;79;21066;-75
2021/05/27 05:55:09;;;;;;;8.93;7.55;;;;;;;24.96;51.08;99607.47;1786380;79;21074;-76
2021/05/27 05:57:35;;;;;;;9.55;5.62;;;;;;;24.80;50.66;99604.65;1785509;80;21046;-76
2021/05/27 06:00:04;;;;;;;21.93;7.30;;;;;;;24.49;50.61;99608.16;1790654;79;21289;-75
2021/05/27 06:02:32;;;;;;;7.22;6.25;;;;;;;24.21;51.80;99597.45;1816131;79;21179;-75
2021/05/27 06:04:59;;;;;;;8.10;6.17;;;;;;;24.17;52.09;99600.22;1796773;79;21015;-75
2021/05/27 06:07:29;;;;;;;16.70;7.03;;;;;;;24.19;51.75;99602.22;1807144;79;21098;-75
2021/05/27 06:09:55;;;;;;;8.05;7.25;;;;;;;24.19;51.44;99600.34;1801924;79;21053;-75
2021/05/27 06:12:24;;;;;;;7.83;5.72;;;;;;;24.07;51.80;99602.45;1799769;79;21558;-75
2021/05/27 06:14:51;;;;;;;28.90;8.60;;;;;;;24.13;52.51;99598.96;1786983;79;21551;-75
2021/05/27 06:17:19;;;;;;;11.68;6.03;;;;;;;24.19;51.77;99599.52;1784899;80;21047;-75
2021/05/27 06:19:45;;;;;;;6.75;6.08;;;;;;;24.27;51.06;99599.36;1785905;80;21038;-75
2021/05/27 06:22:16;;;;;;;8.75;7.10;;;;;;;24.37;51.60;99602.52;1794616;79;20999;-77
2021/05/27 06:24:48;;;;;;;9.23;7.05;;;;;;;24.60;51.74;99608.08;1814603;79;21040;-74
2021/05/27 06:27:14;;;;;;;10.03;7.50;;;;;;;24.82;50.89;99598.50;1817673;79;21613;-76
2021/05/27 06:29:40;;;;;;;44.05;10.35;;;;;;;24.97;50.82;99601.84;1788693;79;21042;-75
2021/05/27 06:32:10;;;;;;;392.73;33.63;;;;;;;25.12;50.63;99602.20;1785828;80;21066;-75
2021/05/27 06:34:37;;;;;;;12.50;7.08;;;;;;;25.17;49.92;99601.05;1794265;79;21376;-74
2021/05/27 06:37:04;;;;;;;18.70;7.53;;;;;;;25.08;49.40;99606.33;1796029;79;21062;-76
2021/05/27 06:39:30;;;;;;;11.22;7.67;;;;;;;24.91;49.48;99608.11;1811578;79;21629;-74
2021/05/27 06:41:57;;;;;;;27.37;8.85;;;;;;;24.74;49.87;99606.81;1770190;79;22175;-78
2021/05/27 06:44:23;;;;;;;13.32;7.20;;;;;;;24.58;50.33;99610.17;1802515;78;21540;-76
2021/05/27 06:46:50;;;;;;;8.10;6.30;;;;;;;24.38;50.88;99612.27;1798863;79;21062;-77
2021/05/27 06:49:16;;;;;;;8.13;5.87;;;;;;;24.27;51.02;99604.77;1809927;78;21625;-76
2021/05/27 06:51:45;;;;;;;7.83;5.78;;;;;;;24.21;51.27;99606.91;1800959;78;21065;-76
2021/05/27 06:54:11;;;;;;;10.70;6.00;;;;;;;24.20;51.50;99607.94;1784736;78;21077;-76
2021/05/27 06:56:39;;;;;;;7.78;5.65;;;;;;;24.27;51.55;99603.91;1798687;78;21078;-76
2021/05/27 06:59:05;;;;;;;9.23;6.33;;;;;;;24.36;50.96;99603.55;1778509;79;21012;-76
2021/05/27 07:01:33;;;;;;;7.45;5.70;;;;;;;24.41;50.85;99602.10;1777607;78;21057;-76
2021/05/27 07:05:18;;;;;;;8.28;6.17;;;;;;;24.50;51.27;99600.88;1798133;78;22598;-74
2021/05/27 07:07:45;;;;;;;7.45;6.05;;;;;;;24.48;50.83;99595.68;1777172;79;21098;-77
2021/05/27 07:10:14;;;;;;;7.37;5.42;;;;;;;24.53;50.80;99603.19;1769760;79;21029;-77
2021/05/27 07:12:51;;;;;;;65.25;8.90;;;;;;;24.57;50.67;99604.45;1767242;80;21018;-77
2021/05/27 07:15:20;;;;;;;6.62;5.90;;;;;;;24.66;50.55;99599.20;1769572;79;20995;-77
2021/05/27 07:17:47;;;;;;;7.35;5.42;;;;;;;24.75;49.94;99594.44;1768008;80;21037;-77
2021/05/27 07:20:15;;;;;;;11.20;4.58;;;;;;;24.82;49.58;99590.38;1773071;79;21568;-78
2021/05/27 07:22:41;;;;;;;7.40;5.78;;;;;;;24.79;49.62;99588.92;1763924;79;21618;-77
2021/05/27 07:25:09;;;;;;;6.53;5.03;;;;;;;24.78;49.84;99590.48;1762354;80;21640;-77
2021/05/27 07:27:36;;;;;;;8.55;5.40;;;;;;;24.86;49.53;99580.84;1736516;81;21094;-77
2021/05/27 07:30:05;;;;;;;6.75;5.78;;;;;;;24.91;49.50;99582.41;1710907;83;21092;-77
2021/05/27 07:32:32;;;;;;;7.22;5.72;;;;;;;24.88;49.47;99584.16;1707423;83;21071;-78
2021/05/27 07:34:59;;;;;;;11.20;6.10;;;;;;;25.03;50.22;99578.56;1710229;82;21026;-78
2021/05/27 07:37:26;;;;;;;7.90;6.33;;;;;;;25.24;49.42;99584.28;1707274;82;21031;-76
2021/05/27 07:39:52;;;;;;;32.90;7.65;;;;;;;25.40;48.85;99572.75;1707313;82;21120;-77
2021/05/27 07:42:19;;;;;;;7.53;5.05;;;;;;;25.51;48.24;99570.77;1707994;82;21093;-78
2021/05/27 07:44:45;;;;;;;35.52;8.13;;;;;;;25.40;47.58;99564.13;1706394;84;21105;-77
2021/05/27 07:47:11;;;;;;;5.90;5.30;;;;;;;25.17;48.19;99572.64;1715398;82;21042;-78
2021/05/27 07:49:39;;;;;;;7.00;5.17;;;;;;;25.12;48.59;99574.61;1708598;82;21185;-78
2021/05/27 07:52:06;;;;;;;54.53;7.35;;;;;;;25.18;48.26;99582.44;1724539;82;21120;-78
2021/05/27 07:54:33;;;;;;;7.37;5.58;;;;;;;25.13;48.19;99567.31;1711488;82;21125;-77
2021/05/27 07:56:59;;;;;;;9.03;5.50;;;;;;;25.07;47.98;99560.88;1721172;82;21387;-74
2021/05/27 07:59:27;;;;;;;7.08;5.65;;;;;;;25.00;48.36;99563.58;1711992;82;21073;-75
2021/05/27 08:01:53;;;;;;;6.20;5.45;;;;;;;25.06;48.90;99558.38;1708036;82;21194;-74
2021/05/27 08:04:19;;;;;;;16.00;6.47;;;;;;;25.12;48.15;99554.85;1722941;82;21073;-75
2021/05/27 08:06:45;;;;;;;12.93;5.67;;;;;;;25.12;48.45;99558.91;1718391;81;21076;-75
2021/05/27 08:09:13;;;;;;;10.15;5.83;;;;;;;25.22;48.58;99552.55;1723661;82;21146;-75
2021/05/27 08:11:40;;;;;;;7.08;5.28;;;;;;;25.25;48.54;99550.77;1722624;81;21063;-74
2021/05/27 08:14:08;;;;;;;6.65;5.15;;;;;;;25.26;48.30;99551.09;1731952;81;21030;-75
2021/05/27 08:16:34;;;;;;;16.77;5.85;;;;;;;25.16;47.43;99546.09;1745845;82;21058;-77
2021/05/27 08:19:03;;;;;;;5.33;4.37;;;;;;;25.10;47.14;99552.86;1725763;81;21107;-75
2021/05/27 08:21:29;;;;;;;15.55;5.87;;;;;;;25.10;47.62;99554.22;1706438;82;21059;-75
2021/05/27 08:23:56;;;;;;;4.90;4.17;;;;;;;25.06;47.68;99548.38;1722129;81;21062;-75
2021/05/27 08:26:23;;;;;;;6.87;4.97;;;;;;;24.91;48.01;99544.55;1725263;81;21514;-75
2021/05/27 08:28:49;;;;;;;6.50;5.40;;;;;;;24.87;48.40;99547.33;1730201;82;21570;-76
2021/05/27 08:31:17;;;;;;;6.90;5.30;;;;;;;24.86;48.57;99542.98;1722392;81;21714;-77
2021/05/27 08:33:44;;;;;;;9.00;6.10;;;;;;;24.96;49.46;99544.75;1725404;82;21083;-75
2021/05/27 08:36:11;;;;;;;8.05;5.08;;;;;;;25.10;49.34;99541.51;1733648;81;21597;-76
2021/05/27 08:38:37;;;;;;;89.07;9.80;;;;;;;25.28;49.01;99540.91;1719794;81;21549;-76
2021/05/27 08:41:05;;;;;;;6.47;4.70;;;;;;;25.33;49.10;99541.10;1723674;82;21039;-76
2021/05/27 08:43:32;;;;;;;7.62;4.85;;;;;;;25.37;48.45;99536.11;1720861;81;21660;-75
2021/05/27 08:46:03;;;;;;;6.33;4.28;;;;;;;25.42;48.94;99544.97;1724125;81;21567;-76
2021/05/27 08:48:30;;;;;;;5.37;4.30;;;;;;;25.37;48.50;99536.64;1718048;82;21070;-76
2021/05/27 08:50:59;;;;;;;5.22;4.12;;;;;;;25.47;49.31;99541.10;1730380;81;21570;-75
2021/05/27 08:53:25;;;;;;;5.80;4.70;;;;;;;25.61;48.82;99546.80;1730514;82;21070;-77
2021/05/27 08:55:52;;;;;;;7.83;4.17;;;;;;;25.65;48.07;99544.00;1733719;82;22142;-77
2021/05/27 08:58:18;;;;;;;7.42;4.85;;;;;;;25.51;47.49;99546.40;1738026;81;21039;-77
2021/05/27 09:00:44;;;;;;;12.88;4.62;;;;;;;25.28;48.02;99546.31;1716608;82;21039;-77
2021/05/27 09:03:13;;;;;;;437.05;38.20;;;;;;;25.19;48.58;99551.61;1741866;81;21094;-78
2021/05/27 09:05:40;;;;;;;6.55;4.80;;;;;;;25.03;48.79;99555.04;1714542;81;21094;-77
2021/05/27 09:08:09;;;;;;;9.48;5.50;;;;;;;24.93;48.64;99561.38;1728161;83;21062;-76
2021/05/27 09:10:44;;;;;;;9.33;4.78;;;;;;;24.79;48.75;99555.66;1730565;81;21073;-77
2021/05/27 09:13:18;;;;;;;8.55;4.97;;;;;;;24.63;48.87;99561.73;1701266;83;21114;-76
2021/05/27 09:15:47;;;;;;;;;;;;;;;24.42;49.71;99561.35;1740275;81;21065;-77
2021/05/27 09:18:13;;;;;;;10.90;5.25;;;;;;;24.22;50.19;99557.22;1724665;81;20148;-75
2021/05/27 09:20:40;;;;;;;9.13;5.75;;;;;;;24.07;50.99;99553.34;1694787;83;21088;-77
2021/05/27 09:23:17;;;;;;;23.62;8.05;;;;;;;24.04;51.24;99551.87;1735899;81;21109;-77
2021/05/27 09:25:47;;;;;;;8.30;6.20;;;;;;;24.00;51.20;99549.27;1701255;84;21558;-76
2021/05/27 09:28:24;;;;;;;32.10;8.15;;;;;;;23.94;51.38;99549.20;1720779;81;21050;-76
2021/05/27 09:30:55;;;;;;;8.45;6.20;;;;;;;23.86;51.83;99542.08;1720926;81;21058;-76
2021/05/27 09:33:37;;;;;;;97.65;12.65;;;;;;;23.79;52.24;99539.34;1672179;84;21609;-77
2021/05/27 09:36:15;;;;;;;8.85;6.70;;;;;;;23.77;52.39;99539.23;1724455;81;21017;-76
2021/05/27 09:38:47;;;;;;;11.60;7.35;;;;;;;23.81;52.50;99543.20;1708159;83;21023;-76
2021/05/27 09:41:22;;;;;;;83.20;11.28;;;;;;;23.84;52.89;99540.11;1716202;81;21034;-76
2021/05/27 09:43:52;;;;;;;9.98;7.20;;;;;;;23.95;53.18;99544.98;1708274;83;21066;-76
2021/05/27 09:46:20;;;;;;;8.98;6.92;;;;;;;24.12;53.05;99536.51;1730776;82;21071;-76
2021/05/27 09:48:47;;;;;;;10.43;6.67;;;;;;;24.27;52.52;99536.36;1731724;81;21070;-76
2021/05/27 09:51:28;;;;;;;20.80;8.45;;;;;;;24.34;52.23;99530.47;1731433;83;21054;-76
2021/05/27 09:53:57;;;;;;;7.78;7.08;;;;;;;24.37;52.00;99532.25;1735581;81;21594;-76
2021/05/27 09:56:38;;;;;;;27.42;9.48;;;;;;;24.41;51.95;99536.70;1735136;80;21057;-76
2021/05/27 09:59:05;;;;;;;11.15;9.38;;;;;;;24.53;52.43;99534.27;1708408;83;21026;-76
2021/05/27 10:01:32;;;;;;;12.73;9.65;;;;;;;24.68;51.55;99536.30;1728738;81;22193;-75
2021/05/27 10:04:17;;;;;;;90.80;14.18;;;;;;;24.78;51.46;99538.58;1728433;80;21051;-76
2021/05/27 10:06:45;;;;;;;19.57;9.80;;;;;;;24.81;50.98;99537.33;1730909;80;21063;-76
2021/05/27 10:09:12;;;;;;;13.80;9.93;;;;;;;24.80;50.73;99534.34;1759024;81;21096;-75
2021/05/27 10:11:40;;;;;;;20.20;10.63;;;;;;;24.76;50.73;99534.41;1754671;81;21052;-76
2021/05/27 10:14:09;;;;;;;13.62;11.55;;;;;;;24.67;51.04;99528.39;1752770;80;21038;-76
2021/05/27 10:16:38;;;;;;;11.65;10.55;;;;;;;24.56;51.42;99526.27;1747998;81;21068;-75
2021/05/27 10:19:06;;;;;;;11.22;9.48;;;;;;;24.47;51.76;99525.62;1746713;80;21605;-75
2021/05/27 10:21:37;;;;;;;10.85;9.60;;;;;;;24.34;51.71;99518.31;1747480;80;21067;-75
2021/05/27 10:24:05;;;;;;;15.10;10.03;;;;;;;24.22;52.14;99524.80;1752143;80;21056;-75
2021/05/27 10:26:31;;;;;;;25.52;11.28;;;;;;;24.10;52.37;99522.39;1749522;80;21093;-76
2021/05/27 10:28:58;;;;;;;39.40;11.78;;;;;;;23.98;52.94;99520.26;1770407;81;21079;-75
2021/05/27 10:31:24;;;;;;;18.50;10.82;;;;;;;23.90;53.61;99524.44;1748401;81;21062;-77
2021/05/27 10:33:52;;;;;;;45.05;11.33;;;;;;;23.85;54.08;99524.20;1750011;80;21033;-77
2021/05/27 10:36:20;;;;;;;35.40;10.68;;;;;;;23.82;54.35;99524.62;1752591;81;21644;-75
2021/05/27 10:38:51;;;;;;;14.70;10.75;;;;;;;23.75;54.22;99521.04;1751448;80;21070;-74
2021/05/27 10:41:21;;;;;;;11.53;10.32;;;;;;;23.64;54.40;99524.62;1771019;81;21640;-74
2021/05/27 10:44:06;;;;;;;14.05;10.20;;;;;;;23.51;54.70;99519.16;1760532;80;21134;-74
2021/05/27 10:46:49;;;;;;;9.98;8.98;;;;;;;23.44;55.01;99526.37;1753421;80;21626;-74
2021/05/27 10:49:45;;;;;;;10.48;9.48;;;;;;;23.30;55.13;99520.05;1760173;81;21187;-74
2021/05/27 10:52:33;;;;;;;80.40;12.88;;;;;;;23.15;55.41;99516.11;1748607;80;22176;-74
2021/05/27 10:54:59;;;;;;;11.53;8.10;;;;;;;22.99;56.20;99509.95;1771260;81;21054;-75
2021/05/27 10:57:46;;;;;;;10.68;9.20;;;;;;;22.89;56.53;99514.81;1760029;80;21038;-75
2021/05/27 11:00:37;;;;;;;18.32;9.13;;;;;;;22.80;56.76;99524.08;1757927;81;21058;-75
2021/05/27 11:03:43;;;;;;;139.68;16.10;;;;;;;22.81;57.38;99528.45;1749679;80;21051;-74
2021/05/27 11:06:23;;;;;;;20.08;10.93;;;;;;;22.81;58.04;99536.00;1774712;80;21062;-75
2021/05/27 11:09:16;;;;;;;11.30;6.65;;;;;;;22.60;60.44;99555.72;1753808;81;21094;-75
2021/05/27 11:11:47;;;;;;;12.05;9.10;;;;;;;22.35;61.94;99558.71;1758998;80;21644;-76
2021/05/27 11:14:19;;;;;;;10.72;8.60;;;;;;;22.02;63.59;99561.86;1752929;80;21036;-75
2021/05/27 11:17:12;;;;;;;12.65;7.85;;;;;;;21.67;64.96;99568.30;1752047;80;21092;-76
2021/05/27 11:25:16;;;;;;;10.05;7.25;;;;;;;21.04;68.01;99561.80;1771122;80;21063;-76
2021/05/27 11:28:04;;;;;;;11.38;8.13;;;;;;;20.86;68.67;99570.70;1761082;80;21075;-76
2021/05/27 11:30:44;;;;;;;11.35;7.75;;;;;;;20.81;69.16;99559.63;1761303;80;21608;-75
2021/05/27 11:33:29;;;;;;;8.40;7.40;;;;;;;20.66;69.82;99558.20;1764703;80;20979;-76
2021/05/27 11:35:57;;;;;;;8.78;7.03;;;;;;;20.52;70.33;99555.77;1756735;80;21052;-78
2021/05/27 11:38:32;;;;;;;9.43;7.80;;;;;;;20.52;70.87;99555.77;1754681;81;21092;-77
2021/05/27 11:41:03;;;;;;;7.85;7.05;;;;;;;20.52;71.08;99542.34;1752774;80;21863;-79
2021/05/27 11:43:39;;;;;;;9.18;7.65;;;;;;;20.40;71.35;99546.77;1765578;80;21083;-77
2021/05/27 11:46:09;;;;;;;8.08;6.83;;;;;;;20.36;71.74;99548.63;1752525;81;21511;-75
2021/05/27 11:48:39;;;;;;;8.28;6.45;;;;;;;20.46;71.62;99552.78;1756944;80;21098;-76